Flight Track Log - Related Links

Times and Time Zones

All times are in EDT time to prevent confusion due to time zone crossing. See the USC105 flight status page for this flight to view local times or setup timezone preferences in your user account.

Time Position Orientation Groundspeed Altitude Reporting Facility
EDT Latitude Longitude Course Direction KTS MPH feet Rate Location/Type
Wed 09:59:05 PM 39.8197 -82.9219 47° Northeast 109 125 1,000  Level Indianapolis Center
Wed 10:00:00 PM 39.8358 -82.8994 47° Northeast 99 114 2,300 1,200 Climbing Indianapolis Center
Wed 10:00:55 PM 39.8567 -82.8692 48° Northeast 123 142 3,200 1,000 Climbing Indianapolis Center
Wed 10:01:18 PM 39.8628 -82.8583 54° Northeast 115 132 3,600 1,000 Climbing Indianapolis Center
Wed 10:01:55 PM 39.8761 -82.8278 60° Northeast 133 153 4,200 787 Climbing Indianapolis Center
Wed 10:02:19 PM 39.8828 -82.8178 49° Northeast 126 145 4,400 393 Climbing Indianapolis Center
Wed 10:02:56 PM 39.9158 -82.7997 23° Northeast 178 205 4,600 492 Climbing Indianapolis Center
Wed 10:03:20 PM 39.9289 -82.7900 30° Northeast 171 197 4,900 400 Climbing Indianapolis Center
Wed 10:03:56 PM 39.9642 -82.7644 29° Northeast 189 217 5,000 98 Climbing Indianapolis Center
Wed 10:04:21 PM 39.9739 -82.7569 31° Northeast 181 208 5,000  Level Indianapolis Center
Wed 10:04:57 PM 40.0147 -82.7292 28° Northeast 216 249 5,000  Level Indianapolis Center
Wed 10:05:22 PM 40.0275 -82.7197 30° Northeast 208 239 5,000 -98 Level Indianapolis Center
Wed 10:05:58 PM 40.0650 -82.6939 28° Northeast 210 242 4,900 -98 Descending Indianapolis Center
Wed 10:06:23 PM 40.0881 -82.6797 25° Northeast 208 239 4,900  Level Indianapolis Center
Wed 10:06:58 PM 40.1153 -82.6614 27° Northeast 205 236 4,900  Level Indianapolis Center
Wed 10:07:24 PM 40.1386 -82.6453 28° Northeast 204 235 4,900  Level Indianapolis Center
Wed 10:07:59 PM 40.1656 -82.6289 25° Northeast 203 234 4,900  Level Indianapolis Center
Wed 10:08:25 PM 40.1903 -82.6117 28° Northeast 204 235 4,900  Level Indianapolis Center
Wed 10:09:00 PM 40.2203 -82.5911 28° Northeast 204 235 4,900  Level Indianapolis Center
Wed 10:09:26 PM 40.2406 -82.5767 29° Northeast 204 235 4,900  Level Indianapolis Center
Wed 10:10:00 PM 40.2706 -82.5556 28° Northeast 205 236 4,900  Level Indianapolis Center
Wed 10:10:27 PM 40.2872 -82.5453 25° Northeast 205 236 4,900  Level Indianapolis Center
Wed 10:11:28 PM 40.3364 -82.5092 29° Northeast 202 232 4,900  Level Indianapolis Center
Wed 10:12:29 PM 40.3856 -82.4733 29° Northeast 200 230 4,900  Level Indianapolis Center
Wed 10:13:30 PM 40.4350 -82.4431 25° Northeast 196 226 4,900  Level Indianapolis Center
Wed 10:14:31 PM 40.4822 -82.4028 33° Northeast 200 230 4,900  Level Indianapolis Center
Wed 10:15:32 PM 40.5286 -82.3628 33° Northeast 198 228 4,900  Level Indianapolis Center
Wed 10:16:33 PM 40.5761 -82.3256 31° Northeast 197 227 4,900 49 Level Indianapolis Center
Wed 10:17:34 PM 40.6306 -82.2847 30° Northeast 191 220 5,000  Climbing Indianapolis Center
Wed 10:18:35 PM 40.6756 -82.2458 33° Northeast 192 221 4,900 -49 Descending Indianapolis Center
Wed 10:19:36 PM 40.7192 -82.2103 32° Northeast 186 214 4,900  Level Indianapolis Center
Wed 10:20:37 PM 40.7636 -82.1728 33° Northeast 186 214 4,900 45 Level Indianapolis Center
Wed 10:21:48 PM 40.8133 -82.1331 31° Northeast 188 216 5,000 48 Climbing Cleveland Center
Wed 10:22:42 PM 40.8533 -82.1011 31° Northeast 182 209 5,000  Level Cleveland Center
Wed 10:23:43 PM 40.8975 -82.0636 33° Northeast 186 214 5,000  Level Cleveland Center
Wed 10:24:37 PM 40.9333 -82.0342 32° Northeast 185 213 5,000  Level Cleveland Center
Wed 10:25:38 PM 40.9797 -81.9969 31° Northeast 182 209 5,000 -52 Level Cleveland Center
Wed 10:26:33 PM 41.0178 -81.9647 33° Northeast 192 221 4,900 -496 Descending Cleveland Center
Wed 10:27:39 PM 41.0725 -81.9133 35° Northeast 207 238 4,000 -850 Descending Cleveland Center
Wed 10:28:40 PM 41.1189 -81.8703 35° Northeast 208 239 3,100 -574 Descending Cleveland Center
Wed 10:29:34 PM 41.1650 -81.8492 19° North 193 222 2,900 -104 Descending Cleveland Center
Wed 10:30:35 PM 41.2111 -81.8253 21° North 177 204 2,900  Level Cleveland Center
Wed 10:31:35 PM 41.2550 -81.8039 20° North 168 193 2,900 52 Level Cleveland Center
Wed 10:32:30 PM 41.2969 -81.7825 21° North 172 198 3,000 49 Climbing Cleveland Center
Wed 10:33:37 PM 41.3453 -81.7558 22° Northeast 169 194 3,000 -142 Level Cleveland Center
Wed 10:34:37 PM 41.3953 -81.7483 North 176 203 2,700 -298 Descending Cleveland Center
Wed 10:35:38 PM 41.4433 -81.7467 North 173 199 2,400 -281 Descending Cleveland Center
Wed 10:36:45 PM 41.4933 -81.7392 North 157 181 2,100 -269 Descending Cleveland Center

Login

Don't have an account? Register now (free) for customized features, flight alerts, and more!